sensor_id;sensor_type;location;lat;lon;timestamp;temperature;humidity
49829;DHT22;35723;51.194;5.112;2022-09-24T00:00:44;24.10;89.50
49829;DHT22;35723;51.194;5.112;2022-09-24T00:03:10;24.10;89.50
49829;DHT22;35723;51.194;5.112;2022-09-24T00:05:37;24.10;89.50
49829;DHT22;35723;51.194;5.112;2022-09-24T00:08:07;24.10;89.50
49829;DHT22;35723;51.194;5.112;2022-09-24T00:10:40;24.10;89.50
49829;DHT22;35723;51.194;5.112;2022-09-24T00:13:08;24.10;89.50
49829;DHT22;35723;51.194;5.112;2022-09-24T00:15:43;24.10;89.60
49829;DHT22;35723;51.194;5.112;2022-09-24T00:18:09;24.10;89.50
49829;DHT22;35723;51.194;5.112;2022-09-24T00:20:36;24.10;89.60
49829;DHT22;35723;51.194;5.112;2022-09-24T00:23:04;24.10;89.60
49829;DHT22;35723;51.194;5.112;2022-09-24T00:25:30;24.10;89.60
49829;DHT22;35723;51.194;5.112;2022-09-24T00:28:15;24.10;89.60
49829;DHT22;35723;51.194;5.112;2022-09-24T00:30:41;24.10;89.70
49829;DHT22;35723;51.194;5.112;2022-09-24T00:33:08;24.10;89.70
49829;DHT22;35723;51.194;5.112;2022-09-24T00:35:36;24.10;89.70
49829;DHT22;35723;51.194;5.112;2022-09-24T00:38:02;24.10;89.70
49829;DHT22;35723;51.194;5.112;2022-09-24T00:40:31;24.10;89.70
49829;DHT22;35723;51.194;5.112;2022-09-24T00:42:58;24.10;89.80
49829;DHT22;35723;51.194;5.112;2022-09-24T00:45:24;24.10;89.80
49829;DHT22;35723;51.194;5.112;2022-09-24T00:47:52;24.10;89.80
49829;DHT22;35723;51.194;5.112;2022-09-24T00:50:33;24.10;89.80
49829;DHT22;35723;51.194;5.112;2022-09-24T00:53:07;24.10;89.70
49829;DHT22;35723;51.194;5.112;2022-09-24T00:55:35;24.10;89.90
49829;DHT22;35723;51.194;5.112;2022-09-24T00:58:04;24.10;89.90
49829;DHT22;35723;51.194;5.112;2022-09-24T01:00:30;24.10;89.90
49829;DHT22;35723;51.194;5.112;2022-09-24T01:03:11;24.10;89.90
49829;DHT22;35723;51.194;5.112;2022-09-24T01:05:38;24.10;89.80
49829;DHT22;35723;51.194;5.112;2022-09-24T01:08:06;24.10;89.90
49829;DHT22;35723;51.194;5.112;2022-09-24T01:16:21;24.10;89.90
49829;DHT22;35723;51.194;5.112;2022-09-24T01:20:02;24.10;89.90
49829;DHT22;35723;51.194;5.112;2022-09-24T01:27:43;24.10;90.00
49829;DHT22;35723;51.194;5.112;2022-09-24T01:30:12;24.00;90.00
49829;DHT22;35723;51.194;5.112;2022-09-24T01:32:51;24.00;90.00
49829;DHT22;35723;51.194;5.112;2022-09-24T01:38:46;24.00;90.00
49829;DHT22;35723;51.194;5.112;2022-09-24T01:40:47;24.10;90.00
49829;DHT22;35723;51.194;5.112;2022-09-24T01:43:16;24.00;90.00
49829;DHT22;35723;51.194;5.112;2022-09-24T01:45:42;24.00;90.00
49829;DHT22;35723;51.194;5.112;2022-09-24T01:48:09;24.00;90.00
49829;DHT22;35723;51.194;5.112;2022-09-24T01:50:50;24.00;90.00
49829;DHT22;35723;51.194;5.112;2022-09-24T01:53:20;24.10;90.00
49829;DHT22;35723;51.194;5.112;2022-09-24T01:55:50;24.00;90.00
49829;DHT22;35723;51.194;5.112;2022-09-24T01:58:22;24.10;90.00
49829;DHT22;35723;51.194;5.112;2022-09-24T02:00:53;24.10;90.10
49829;DHT22;35723;51.194;5.112;2022-09-24T02:03:28;24.10;90.10
49829;DHT22;35723;51.194;5.112;2022-09-24T02:06:03;24.10;90.10
49829;DHT22;35723;51.194;5.112;2022-09-24T02:08:37;24.10;90.10
49829;DHT22;35723;51.194;5.112;2022-09-24T02:11:27;24.00;90.00
49829;DHT22;35723;51.194;5.112;2022-09-24T02:14:01;24.00;90.00
49829;DHT22;35723;51.194;5.112;2022-09-24T02:16:55;24.10;90.10
49829;DHT22;35723;51.194;5.112;2022-09-24T02:19:25;24.10;90.10
49829;DHT22;35723;51.194;5.112;2022-09-24T02:21:53;24.00;90.10
49829;DHT22;35723;51.194;5.112;2022-09-24T02:24:22;24.00;90.10
49829;DHT22;35723;51.194;5.112;2022-09-24T02:26:49;24.00;90.10
49829;DHT22;35723;51.194;5.112;2022-09-24T02:29:15;24.00;90.10
49829;DHT22;35723;51.194;5.112;2022-09-24T02:31:46;24.00;90.10
49829;DHT22;35723;51.194;5.112;2022-09-24T02:34:17;24.00;90.10
49829;DHT22;35723;51.194;5.112;2022-09-24T02:36:50;24.00;90.10
49829;DHT22;35723;51.194;5.112;2022-09-24T02:39:17;24.00;90.10
49829;DHT22;35723;51.194;5.112;2022-09-24T02:41:47;24.00;90.20
49829;DHT22;35723;51.194;5.112;2022-09-24T02:44:17;24.00;90.20
49829;DHT22;35723;51.194;5.112;2022-09-24T02:46:44;24.00;90.20
49829;DHT22;35723;51.194;5.112;2022-09-24T02:49:11;24.00;90.20
49829;DHT22;35723;51.194;5.112;2022-09-24T02:51:38;24.00;90.20
49829;DHT22;35723;51.194;5.112;2022-09-24T02:54:04;24.00;90.20
49829;DHT22;35723;51.194;5.112;2022-09-24T02:56:30;24.00;90.20
49829;DHT22;35723;51.194;5.112;2022-09-24T02:58:56;24.00;90.20
49829;DHT22;35723;51.194;5.112;2022-09-24T03:01:22;24.00;90.20
49829;DHT22;35723;51.194;5.112;2022-09-24T03:03:49;24.00;90.20
49829;DHT22;35723;51.194;5.112;2022-09-24T03:06:15;24.00;90.20
49829;DHT22;35723;51.194;5.112;2022-09-24T03:08:41;24.00;90.20
49829;DHT22;35723;51.194;5.112;2022-09-24T03:11:08;24.00;90.20
49829;DHT22;35723;51.194;5.112;2022-09-24T03:13:34;24.00;90.20
49829;DHT22;35723;51.194;5.112;2022-09-24T03:16:00;24.00;90.20
49829;DHT22;35723;51.194;5.112;2022-09-24T03:18:26;24.00;90.20
49829;DHT22;35723;51.194;5.112;2022-09-24T03:20:59;24.00;90.20
49829;DHT22;35723;51.194;5.112;2022-09-24T03:23:26;24.00;90.20
49829;DHT22;35723;51.194;5.112;2022-09-24T03:25:52;24.00;90.20
49829;DHT22;35723;51.194;5.112;2022-09-24T03:28:18;24.00;90.20
49829;DHT22;35723;51.194;5.112;2022-09-24T03:30:44;24.00;90.30
49829;DHT22;35723;51.194;5.112;2022-09-24T03:33:52;24.00;90.30
49829;DHT22;35723;51.194;5.112;2022-09-24T03:36:21;24.00;90.20
49829;DHT22;35723;51.194;5.112;2022-09-24T03:38:49;24.00;90.30
49829;DHT22;35723;51.194;5.112;2022-09-24T03:41:15;24.00;90.30
49829;DHT22;35723;51.194;5.112;2022-09-24T03:43:41;24.00;90.30
49829;DHT22;35723;51.194;5.112;2022-09-24T03:46:08;24.00;90.30
49829;DHT22;35723;51.194;5.112;2022-09-24T03:48:35;24.00;90.30
49829;DHT22;35723;51.194;5.112;2022-09-24T03:51:06;24.00;90.30
49829;DHT22;35723;51.194;5.112;2022-09-24T03:53:33;24.00;90.30
49829;DHT22;35723;51.194;5.112;2022-09-24T03:55:59;24.00;90.30
49829;DHT22;35723;51.194;5.112;2022-09-24T03:58:26;24.00;90.30
49829;DHT22;35723;51.194;5.112;2022-09-24T04:00:53;24.00;90.30
49829;DHT22;35723;51.194;5.112;2022-09-24T04:03:20;24.00;90.30
49829;DHT22;35723;51.194;5.112;2022-09-24T04:05:47;24.00;90.30
49829;DHT22;35723;51.194;5.112;2022-09-24T04:08:13;24.00;90.30
49829;DHT22;35723;51.194;5.112;2022-09-24T04:10:39;24.00;90.30
49829;DHT22;35723;51.194;5.112;2022-09-24T04:13:04;24.00;90.30
49829;DHT22;35723;51.194;5.112;2022-09-24T04:15:30;24.00;90.30
49829;DHT22;35723;51.194;5.112;2022-09-24T04:17:57;24.00;90.30
49829;DHT22;35723;51.194;5.112;2022-09-24T04:20:28;24.00;90.30
49829;DHT22;35723;51.194;5.112;2022-09-24T04:22:55;24.00;90.30
49829;DHT22;35723;51.194;5.112;2022-09-24T04:25:22;24.00;90.30
49829;DHT22;35723;51.194;5.112;2022-09-24T04:27:53;24.00;90.30
49829;DHT22;35723;51.194;5.112;2022-09-24T04:30:19;24.00;90.30
49829;DHT22;35723;51.194;5.112;2022-09-24T04:32:45;24.00;90.30
49829;DHT22;35723;51.194;5.112;2022-09-24T04:35:11;24.00;90.30
49829;DHT22;35723;51.194;5.112;2022-09-24T04:37:36;24.00;90.30
49829;DHT22;35723;51.194;5.112;2022-09-24T04:40:06;24.00;90.30
49829;DHT22;35723;51.194;5.112;2022-09-24T04:42:37;24.00;90.30
49829;DHT22;35723;51.194;5.112;2022-09-24T04:45:04;24.00;90.30
49829;DHT22;35723;51.194;5.112;2022-09-24T04:47:30;24.00;90.30
49829;DHT22;35723;51.194;5.112;2022-09-24T04:49:56;24.00;90.30
49829;DHT22;35723;51.194;5.112;2022-09-24T04:52:21;24.00;90.30
49829;DHT22;35723;51.194;5.112;2022-09-24T04:54:51;24.00;90.40
49829;DHT22;35723;51.194;5.112;2022-09-24T04:57:16;24.00;90.40
49829;DHT22;35723;51.194;5.112;2022-09-24T04:59:42;24.00;90.40
49829;DHT22;35723;51.194;5.112;2022-09-24T05:02:08;24.00;90.40
49829;DHT22;35723;51.194;5.112;2022-09-24T05:04:35;24.00;90.40
49829;DHT22;35723;51.194;5.112;2022-09-24T05:07:01;24.00;90.70
49829;DHT22;35723;51.194;5.112;2022-09-24T05:09:26;24.00;90.40
49829;DHT22;35723;51.194;5.112;2022-09-24T05:11:52;23.90;90.40
49829;DHT22;35723;51.194;5.112;2022-09-24T05:14:18;24.00;90.40
49829;DHT22;35723;51.194;5.112;2022-09-24T05:16:43;24.00;90.40
49829;DHT22;35723;51.194;5.112;2022-09-24T05:19:09;24.00;90.40
49829;DHT22;35723;51.194;5.112;2022-09-24T05:21:34;24.00;90.40
49829;DHT22;35723;51.194;5.112;2022-09-24T05:24:00;24.00;90.40
49829;DHT22;35723;51.194;5.112;2022-09-24T05:26:26;23.90;90.40
49829;DHT22;35723;51.194;5.112;2022-09-24T05:29:10;23.90;90.40
49829;DHT22;35723;51.194;5.112;2022-09-24T05:31:35;23.90;90.40
49829;DHT22;35723;51.194;5.112;2022-09-24T05:34:01;24.00;90.40
49829;DHT22;35723;51.194;5.112;2022-09-24T05:36:28;23.90;90.40
49829;DHT22;35723;51.194;5.112;2022-09-24T05:38:54;24.00;90.40
49829;DHT22;35723;51.194;5.112;2022-09-24T05:41:20;24.00;90.40
49829;DHT22;35723;51.194;5.112;2022-09-24T05:43:45;24.00;90.40
49829;DHT22;35723;51.194;5.112;2022-09-24T05:46:11;24.00;90.40
49829;DHT22;35723;51.194;5.112;2022-09-24T05:48:36;23.90;90.40
49829;DHT22;35723;51.194;5.112;2022-09-24T05:51:03;24.00;90.40
49829;DHT22;35723;51.194;5.112;2022-09-24T05:53:30;23.90;90.40
49829;DHT22;35723;51.194;5.112;2022-09-24T05:55:55;24.00;90.40
49829;DHT22;35723;51.194;5.112;2022-09-24T05:58:22;23.90;90.40
49829;DHT22;35723;51.194;5.112;2022-09-24T06:00:49;24.00;90.40
49829;DHT22;35723;51.194;5.112;2022-09-24T06:03:16;24.00;90.40
49829;DHT22;35723;51.194;5.112;2022-09-24T06:05:43;24.00;90.40
49829;DHT22;35723;51.194;5.112;2022-09-24T06:08:11;24.00;90.40
49829;DHT22;35723;51.194;5.112;2022-09-24T06:10:37;24.00;90.40
49829;DHT22;35723;51.194;5.112;2022-09-24T06:13:03;23.90;90.40
49829;DHT22;35723;51.194;5.112;2022-09-24T06:15:29;24.00;90.40
49829;DHT22;35723;51.194;5.112;2022-09-24T06:17:55;23.90;90.40
49829;DHT22;35723;51.194;5.112;2022-09-24T06:20:21;23.90;90.40
49829;DHT22;35723;51.194;5.112;2022-09-24T06:22:48;23.90;90.40
49829;DHT22;35723;51.194;5.112;2022-09-24T06:25:13;23.90;90.40
49829;DHT22;35723;51.194;5.112;2022-09-24T06:27:39;23.90;90.40
49829;DHT22;35723;51.194;5.112;2022-09-24T06:30:05;24.00;90.40
49829;DHT22;35723;51.194;5.112;2022-09-24T06:32:31;24.00;90.40
49829;DHT22;35723;51.194;5.112;2022-09-24T06:34:57;23.90;90.40
49829;DHT22;35723;51.194;5.112;2022-09-24T06:37:22;23.90;90.40
49829;DHT22;35723;51.194;5.112;2022-09-24T06:39:48;23.90;90.40
49829;DHT22;35723;51.194;5.112;2022-09-24T06:42:14;23.90;90.40
49829;DHT22;35723;51.194;5.112;2022-09-24T06:44:39;23.90;90.40
49829;DHT22;35723;51.194;5.112;2022-09-24T06:47:06;23.90;90.40
49829;DHT22;35723;51.194;5.112;2022-09-24T06:49:32;23.90;90.40
49829;DHT22;35723;51.194;5.112;2022-09-24T06:51:58;23.90;90.40
49829;DHT22;35723;51.194;5.112;2022-09-24T06:54:23;23.90;90.40
49829;DHT22;35723;51.194;5.112;2022-09-24T06:56:49;23.90;90.40
49829;DHT22;35723;51.194;5.112;2022-09-24T06:59:17;23.90;90.40
49829;DHT22;35723;51.194;5.112;2022-09-24T07:01:43;23.90;90.40
49829;DHT22;35723;51.194;5.112;2022-09-24T07:04:09;23.90;90.40
49829;DHT22;35723;51.194;5.112;2022-09-24T07:06:35;23.90;90.40
49829;DHT22;35723;51.194;5.112;2022-09-24T07:09:20;23.90;90.40
49829;DHT22;35723;51.194;5.112;2022-09-24T07:11:46;23.90;90.40
49829;DHT22;35723;51.194;5.112;2022-09-24T07:14:12;23.90;90.40
49829;DHT22;35723;51.194;5.112;2022-09-24T07:16:38;24.00;90.40
49829;DHT22;35723;51.194;5.112;2022-09-24T07:19:04;24.00;90.40
49829;DHT22;35723;51.194;5.112;2022-09-24T07:21:29;24.00;90.40
49829;DHT22;35723;51.194;5.112;2022-09-24T07:23:55;24.00;90.40
49829;DHT22;35723;51.194;5.112;2022-09-24T07:26:21;24.00;90.40
49829;DHT22;35723;51.194;5.112;2022-09-24T07:28:46;23.90;90.40
49829;DHT22;35723;51.194;5.112;2022-09-24T07:31:12;24.00;90.50
49829;DHT22;35723;51.194;5.112;2022-09-24T07:33:38;24.00;90.50
49829;DHT22;35723;51.194;5.112;2022-09-24T07:36:05;23.90;90.40
49829;DHT22;35723;51.194;5.112;2022-09-24T07:38:34;24.00;90.50
49829;DHT22;35723;51.194;5.112;2022-09-24T07:41:01;24.00;90.50
49829;DHT22;35723;51.194;5.112;2022-09-24T07:43:30;24.00;90.50
49829;DHT22;35723;51.194;5.112;2022-09-24T07:45:57;24.00;90.50
49829;DHT22;35723;51.194;5.112;2022-09-24T07:48:23;24.00;90.50
49829;DHT22;35723;51.194;5.112;2022-09-24T07:50:48;23.90;90.50
49829;DHT22;35723;51.194;5.112;2022-09-24T07:53:15;23.90;90.50
49829;DHT22;35723;51.194;5.112;2022-09-24T07:55:41;23.90;90.50
49829;DHT22;35723;51.194;5.112;2022-09-24T07:58:10;24.00;90.50
49829;DHT22;35723;51.194;5.112;2022-09-24T08:00:36;24.00;90.50
49829;DHT22;35723;51.194;5.112;2022-09-24T08:03:02;23.90;90.50
49829;DHT22;35723;51.194;5.112;2022-09-24T08:05:28;24.00;90.50
49829;DHT22;35723;51.194;5.112;2022-09-24T08:07:55;24.00;90.50
49829;DHT22;35723;51.194;5.112;2022-09-24T08:10:22;23.90;90.50
49829;DHT22;35723;51.194;5.112;2022-09-24T08:12:48;24.00;90.50
49829;DHT22;35723;51.194;5.112;2022-09-24T08:15:14;23.90;90.50
49829;DHT22;35723;51.194;5.112;2022-09-24T08:17:40;24.00;90.60
49829;DHT22;35723;51.194;5.112;2022-09-24T08:20:06;24.00;90.50
49829;DHT22;35723;51.194;5.112;2022-09-24T08:22:32;24.00;90.50
49829;DHT22;35723;51.194;5.112;2022-09-24T08:24:58;24.00;90.60
49829;DHT22;35723;51.194;5.112;2022-09-24T08:27:24;24.00;90.60
49829;DHT22;35723;51.194;5.112;2022-09-24T08:29:51;24.00;90.60
49829;DHT22;35723;51.194;5.112;2022-09-24T08:32:17;24.00;90.60
49829;DHT22;35723;51.194;5.112;2022-09-24T08:34:43;24.00;90.60
49829;DHT22;35723;51.194;5.112;2022-09-24T08:37:10;23.90;90.60
49829;DHT22;35723;51.194;5.112;2022-09-24T08:39:36;23.90;90.60
49829;DHT22;35723;51.194;5.112;2022-09-24T08:42:05;24.00;90.60
49829;DHT22;35723;51.194;5.112;2022-09-24T08:44:40;23.90;90.60
49829;DHT22;35723;51.194;5.112;2022-09-24T08:55:13;23.90;90.60
49829;DHT22;35723;51.194;5.112;2022-09-24T08:57:59;23.90;90.60
49829;DHT22;35723;51.194;5.112;2022-09-24T09:00:37;23.90;90.60
49829;DHT22;35723;51.194;5.112;2022-09-24T09:03:11;23.90;90.60
49829;DHT22;35723;51.194;5.112;2022-09-24T09:09:20;24.00;90.60
49829;DHT22;35723;51.194;5.112;2022-09-24T09:11:50;23.90;90.70
49829;DHT22;35723;51.194;5.112;2022-09-24T09:15:02;23.90;90.70
49829;DHT22;35723;51.194;5.112;2022-09-24T09:20:20;23.90;90.70
49829;DHT22;35723;51.194;5.112;2022-09-24T09:22:49;24.00;90.80
49829;DHT22;35723;51.194;5.112;2022-09-24T09:25:24;23.90;90.70
49829;DHT22;35723;51.194;5.112;2022-09-24T09:28:11;24.00;90.70
49829;DHT22;35723;51.194;5.112;2022-09-24T09:36:41;24.00;90.70
49829;DHT22;35723;51.194;5.112;2022-09-24T09:41:51;24.00;90.80
49829;DHT22;35723;51.194;5.112;2022-09-24T09:44:29;24.00;90.80
49829;DHT22;35723;51.194;5.112;2022-09-24T09:49:42;24.00;90.70
49829;DHT22;35723;51.194;5.112;2022-09-24T09:52:19;24.00;90.80
49829;DHT22;35723;51.194;5.112;2022-09-24T09:54:46;24.00;90.80
49829;DHT22;35723;51.194;5.112;2022-09-24T09:57:23;24.00;90.80
49829;DHT22;35723;51.194;5.112;2022-09-24T09:59:53;24.00;90.80
49829;DHT22;35723;51.194;5.112;2022-09-24T10:02:29;24.00;90.80
49829;DHT22;35723;51.194;5.112;2022-09-24T10:04:58;24.00;90.80
49829;DHT22;35723;51.194;5.112;2022-09-24T10:07:23;24.00;90.80
49829;DHT22;35723;51.194;5.112;2022-09-24T10:10:15;24.00;90.80
49829;DHT22;35723;51.194;5.112;2022-09-24T10:12:41;24.00;90.80
49829;DHT22;35723;51.194;5.112;2022-09-24T10:17:39;24.00;90.80
49829;DHT22;35723;51.194;5.112;2022-09-24T10:20:16;24.00;90.90
49829;DHT22;35723;51.194;5.112;2022-09-24T10:22:51;24.00;90.80
49829;DHT22;35723;51.194;5.112;2022-09-24T10:25:21;24.00;90.90
49829;DHT22;35723;51.194;5.112;2022-09-24T10:27:49;24.00;90.90
49829;DHT22;35723;51.194;5.112;2022-09-24T10:30:16;24.00;90.90
49829;DHT22;35723;51.194;5.112;2022-09-24T10:33:03;24.00;90.90
49829;DHT22;35723;51.194;5.112;2022-09-24T10:35:35;24.00;90.90
49829;DHT22;35723;51.194;5.112;2022-09-24T10:38:17;24.00;90.90
49829;DHT22;35723;51.194;5.112;2022-09-24T10:40:44;24.00;90.90
49829;DHT22;35723;51.194;5.112;2022-09-24T10:43:16;24.00;90.90
49829;DHT22;35723;51.194;5.112;2022-09-24T10:46:08;24.00;90.90
49829;DHT22;35723;51.194;5.112;2022-09-24T10:49:09;24.00;90.90
49829;DHT22;35723;51.194;5.112;2022-09-24T10:54:56;24.00;91.00
49829;DHT22;35723;51.194;5.112;2022-09-24T10:57:31;24.00;91.00
49829;DHT22;35723;51.194;5.112;2022-09-24T11:00:19;24.00;91.00
49829;DHT22;35723;51.194;5.112;2022-09-24T11:06:16;24.00;91.00
49829;DHT22;35723;51.194;5.112;2022-09-24T11:19:28;24.00;91.10
49829;DHT22;35723;51.194;5.112;2022-09-24T11:30:38;24.00;91.10
49829;DHT22;35723;51.194;5.112;2022-09-24T11:41:38;24.00;91.00
49829;DHT22;35723;51.194;5.112;2022-09-24T11:57:39;24.00;91.10
49829;DHT22;35723;51.194;5.112;2022-09-24T12:00:12;24.00;91.10
49829;DHT22;35723;51.194;5.112;2022-09-24T12:05:27;24.00;91.10
49829;DHT22;35723;51.194;5.112;2022-09-24T12:08:16;24.00;91.10
49829;DHT22;35723;51.194;5.112;2022-09-24T12:11:17;24.10;91.10
49829;DHT22;35723;51.194;5.112;2022-09-24T12:13:55;24.10;91.20
49829;DHT22;35723;51.194;5.112;2022-09-24T12:16:28;24.00;91.10
49829;DHT22;35723;51.194;5.112;2022-09-24T12:19:02;24.00;91.10
49829;DHT22;35723;51.194;5.112;2022-09-24T12:21:36;24.00;91.10
49829;DHT22;35723;51.194;5.112;2022-09-24T12:26:50;24.10;91.00
49829;DHT22;35723;51.194;5.112;2022-09-24T12:29:31;24.00;91.10
49829;DHT22;35723;51.194;5.112;2022-09-24T12:32:46;24.10;91.00
49829;DHT22;35723;51.194;5.112;2022-09-24T12:37:59;24.00;91.10
49829;DHT22;35723;51.194;5.112;2022-09-24T12:43:12;24.00;91.00
49829;DHT22;35723;51.194;5.112;2022-09-24T12:45:40;24.00;91.10
49829;DHT22;35723;51.194;5.112;2022-09-24T12:48:13;24.00;91.10
49829;DHT22;35723;51.194;5.112;2022-09-24T12:50:40;24.10;91.00
49829;DHT22;35723;51.194;5.112;2022-09-24T12:53:22;24.10;91.10
49829;DHT22;35723;51.194;5.112;2022-09-24T12:55:58;24.10;91.00
49829;DHT22;35723;51.194;5.112;2022-09-24T12:58:37;24.10;91.10
49829;DHT22;35723;51.194;5.112;2022-09-24T13:04:24;24.10;91.00
49829;DHT22;35723;51.194;5.112;2022-09-24T13:06:46;24.10;91.00
49829;DHT22;35723;51.194;5.112;2022-09-24T13:09:36;24.00;91.10
49829;DHT22;35723;51.194;5.112;2022-09-24T13:12:28;24.10;91.00
49829;DHT22;35723;51.194;5.112;2022-09-24T13:15:05;24.10;91.00
49829;DHT22;35723;51.194;5.112;2022-09-24T13:17:33;24.10;91.40
49829;DHT22;35723;51.194;5.112;2022-09-24T13:20:06;24.00;91.00
49829;DHT22;35723;51.194;5.112;2022-09-24T13:22:35;24.00;91.00
49829;DHT22;35723;51.194;5.112;2022-09-24T13:25:22;24.00;91.00
49829;DHT22;35723;51.194;5.112;2022-09-24T13:28:02;24.10;91.00
49829;DHT22;35723;51.194;5.112;2022-09-24T13:33:17;24.00;91.00
49829;DHT22;35723;51.194;5.112;2022-09-24T13:36:46;24.10;91.00
49829;DHT22;35723;51.194;5.112;2022-09-24T13:39:07;24.10;91.00
49829;DHT22;35723;51.194;5.112;2022-09-24T13:50:00;24.10;91.00
49829;DHT22;35723;51.194;5.112;2022-09-24T13:52:56;24.00;91.00
49829;DHT22;35723;51.194;5.112;2022-09-24T13:55:37;24.10;91.00
49829;DHT22;35723;51.194;5.112;2022-09-24T13:58:04;24.00;91.00
49829;DHT22;35723;51.194;5.112;2022-09-24T14:00:30;24.00;91.00
49829;DHT22;35723;51.194;5.112;2022-09-24T14:03:01;24.00;91.00
49829;DHT22;35723;51.194;5.112;2022-09-24T14:05:30;24.00;91.00
49829;DHT22;35723;51.194;5.112;2022-09-24T14:08:05;24.00;91.00
49829;DHT22;35723;51.194;5.112;2022-09-24T14:10:32;24.10;91.00
49829;DHT22;35723;51.194;5.112;2022-09-24T14:15:48;24.10;91.00
49829;DHT22;35723;51.194;5.112;2022-09-24T14:18:14;24.00;91.00
49829;DHT22;35723;51.194;5.112;2022-09-24T14:20:39;24.00;91.00
49829;DHT22;35723;51.194;5.112;2022-09-24T14:23:05;24.10;91.00
49829;DHT22;35723;51.194;5.112;2022-09-24T14:25:35;24.10;91.00
49829;DHT22;35723;51.194;5.112;2022-09-24T14:28:02;24.00;91.00
49829;DHT22;35723;51.194;5.112;2022-09-24T14:30:31;24.00;91.00
49829;DHT22;35723;51.194;5.112;2022-09-24T14:33:01;24.10;91.00
49829;DHT22;35723;51.194;5.112;2022-09-24T14:35:35;24.10;91.00
49829;DHT22;35723;51.194;5.112;2022-09-24T14:38:44;24.10;91.00
49829;DHT22;35723;51.194;5.112;2022-09-24T14:41:22;24.10;91.00
49829;DHT22;35723;51.194;5.112;2022-09-24T14:43:56;24.10;91.10
49829;DHT22;35723;51.194;5.112;2022-09-24T14:46:38;24.10;91.10
49829;DHT22;35723;51.194;5.112;2022-09-24T14:49:21;24.10;91.00
49829;DHT22;35723;51.194;5.112;2022-09-24T14:54:35;24.10;91.10
49829;DHT22;35723;51.194;5.112;2022-09-24T14:59:42;24.10;91.00
49829;DHT22;35723;51.194;5.112;2022-09-24T15:02:32;24.10;91.10
49829;DHT22;35723;51.194;5.112;2022-09-24T15:05:01;24.10;91.00
49829;DHT22;35723;51.194;5.112;2022-09-24T15:07:29;24.10;91.00
49829;DHT22;35723;51.194;5.112;2022-09-24T15:09:57;24.10;91.00
49829;DHT22;35723;51.194;5.112;2022-09-24T15:12:32;24.10;91.00
49829;DHT22;35723;51.194;5.112;2022-09-24T15:15:01;24.10;91.00
49829;DHT22;35723;51.194;5.112;2022-09-24T15:17:32;24.10;91.00
49829;DHT22;35723;51.194;5.112;2022-09-24T15:19:59;24.10;90.90
49829;DHT22;35723;51.194;5.112;2022-09-24T15:22:26;24.10;91.00
49829;DHT22;35723;51.194;5.112;2022-09-24T15:24:56;24.10;91.00
49829;DHT22;35723;51.194;5.112;2022-09-24T15:27:25;24.10;91.00
49829;DHT22;35723;51.194;5.112;2022-09-24T15:29:58;24.10;91.00
49829;DHT22;35723;51.194;5.112;2022-09-24T15:32:28;24.10;91.00
49829;DHT22;35723;51.194;5.112;2022-09-24T15:34:59;24.10;91.00
49829;DHT22;35723;51.194;5.112;2022-09-24T15:37:26;24.10;91.00
49829;DHT22;35723;51.194;5.112;2022-09-24T15:39:56;24.10;91.00
49829;DHT22;35723;51.194;5.112;2022-09-24T15:42:26;24.10;90.90
49829;DHT22;35723;51.194;5.112;2022-09-24T15:44:52;24.10;90.90
49829;DHT22;35723;51.194;5.112;2022-09-24T15:47:20;24.10;90.90
49829;DHT22;35723;51.194;5.112;2022-09-24T15:49:46;24.10;90.90
49829;DHT22;35723;51.194;5.112;2022-09-24T15:54:38;24.10;90.90
49829;DHT22;35723;51.194;5.112;2022-09-24T15:57:03;24.10;90.90
49829;DHT22;35723;51.194;5.112;2022-09-24T15:59:29;24.10;90.90
49829;DHT22;35723;51.194;5.112;2022-09-24T16:01:58;24.10;90.90
49829;DHT22;35723;51.194;5.112;2022-09-24T16:04:25;24.10;90.90
49829;DHT22;35723;51.194;5.112;2022-09-24T16:06:51;24.10;90.90
49829;DHT22;35723;51.194;5.112;2022-09-24T16:09:16;24.10;90.90
49829;DHT22;35723;51.194;5.112;2022-09-24T16:11:42;24.10;90.90
49829;DHT22;35723;51.194;5.112;2022-09-24T16:14:08;24.10;90.90
49829;DHT22;35723;51.194;5.112;2022-09-24T16:16:36;24.10;90.90
49829;DHT22;35723;51.194;5.112;2022-09-24T16:19:02;24.10;90.90
49829;DHT22;35723;51.194;5.112;2022-09-24T16:21:28;24.10;90.90
49829;DHT22;35723;51.194;5.112;2022-09-24T16:23:54;24.10;90.90
49829;DHT22;35723;51.194;5.112;2022-09-24T16:26:20;24.10;90.90
49829;DHT22;35723;51.194;5.112;2022-09-24T16:28:45;24.10;90.90
49829;DHT22;35723;51.194;5.112;2022-09-24T16:31:13;24.10;90.90
49829;DHT22;35723;51.194;5.112;2022-09-24T16:33:39;24.10;90.90
49829;DHT22;35723;51.194;5.112;2022-09-24T16:36:06;24.10;90.90
49829;DHT22;35723;51.194;5.112;2022-09-24T16:38:35;24.10;90.90
49829;DHT22;35723;51.194;5.112;2022-09-24T16:41:02;24.10;90.90
49829;DHT22;35723;51.194;5.112;2022-09-24T16:43:28;24.00;90.80
49829;DHT22;35723;51.194;5.112;2022-09-24T16:46:03;24.10;90.90
49829;DHT22;35723;51.194;5.112;2022-09-24T16:48:29;24.10;90.90
49829;DHT22;35723;51.194;5.112;2022-09-24T16:51:04;24.00;90.90
49829;DHT22;35723;51.194;5.112;2022-09-24T16:53:30;24.10;90.90
49829;DHT22;35723;51.194;5.112;2022-09-24T16:56:08;24.00;90.90
49829;DHT22;35723;51.194;5.112;2022-09-24T16:58:34;24.10;90.90
49829;DHT22;35723;51.194;5.112;2022-09-24T17:01:09;24.00;90.90
49829;DHT22;35723;51.194;5.112;2022-09-24T17:03:35;24.10;90.90
49829;DHT22;35723;51.194;5.112;2022-09-24T17:06:01;24.00;90.90
49829;DHT22;35723;51.194;5.112;2022-09-24T17:08:26;24.00;90.90
49829;DHT22;35723;51.194;5.112;2022-09-24T17:11:14;24.00;90.90
49829;DHT22;35723;51.194;5.112;2022-09-24T17:13:40;24.00;90.90
49829;DHT22;35723;51.194;5.112;2022-09-24T17:16:05;24.00;90.90
49829;DHT22;35723;51.194;5.112;2022-09-24T17:18:31;24.10;90.90
49829;DHT22;35723;51.194;5.112;2022-09-24T17:21:05;24.00;90.90
49829;DHT22;35723;51.194;5.112;2022-09-24T17:23:32;24.10;90.90
49829;DHT22;35723;51.194;5.112;2022-09-24T17:26:06;24.00;90.90
49829;DHT22;35723;51.194;5.112;2022-09-24T17:28:36;24.00;90.80
49829;DHT22;35723;51.194;5.112;2022-09-24T17:31:03;24.00;90.90
49829;DHT22;35723;51.194;5.112;2022-09-24T17:33:29;24.00;90.90
49829;DHT22;35723;51.194;5.112;2022-09-24T17:35:57;24.00;90.80
49829;DHT22;35723;51.194;5.112;2022-09-24T17:38:23;24.00;90.80
49829;DHT22;35723;51.194;5.112;2022-09-24T17:40:56;24.00;90.90
49829;DHT22;35723;51.194;5.112;2022-09-24T17:43:22;24.00;90.80
49829;DHT22;35723;51.194;5.112;2022-09-24T17:46:02;24.00;90.90
49829;DHT22;35723;51.194;5.112;2022-09-24T17:48:30;24.00;90.80
49829;DHT22;35723;51.194;5.112;2022-09-24T17:50:58;24.00;90.90
49829;DHT22;35723;51.194;5.112;2022-09-24T17:53:24;24.00;90.90
49829;DHT22;35723;51.194;5.112;2022-09-24T17:55:51;24.00;90.90